createdAt,value
2019-05-07T00:01:34.105Z,3.47
2019-05-07T00:04:02.898Z,3.17
2019-05-07T00:06:32.578Z,3.70
2019-05-07T00:09:03.185Z,3.20
2019-05-07T00:11:33.831Z,3.43
2019-05-07T00:14:03.121Z,3.43
2019-05-07T00:16:32.526Z,3.53
2019-05-07T00:19:02.054Z,3.47
2019-05-07T00:21:32.665Z,3.37
2019-05-07T00:24:02.231Z,3.70
2019-05-07T00:26:32.076Z,3.47
2019-05-07T00:29:02.264Z,3.50
2019-05-07T00:31:32.603Z,3.70
2019-05-07T00:34:02.865Z,3.57
2019-05-07T00:36:45.641Z,3.70
2019-05-07T00:39:32.818Z,3.27
2019-05-07T00:42:19.006Z,3.93
2019-05-07T00:45:14.129Z,4.47
2019-05-07T00:47:33.173Z,4.20
2019-05-07T00:50:06.750Z,4.57
2019-05-07T00:52:35.242Z,4.50
2019-05-07T00:55:04.133Z,4.83
2019-05-07T00:57:32.968Z,5.23
2019-05-07T01:00:02.286Z,4.85
2019-05-07T01:02:32.332Z,4.50
2019-05-07T01:05:03.031Z,3.87
2019-05-07T01:07:32.510Z,4.17
2019-05-07T01:10:02.221Z,4.70
2019-05-07T01:12:32.889Z,3.77
2019-05-07T01:15:02.868Z,4.33
2019-05-07T01:17:33.629Z,4.20
2019-05-07T01:20:04.043Z,4.17
2019-05-07T01:22:33.162Z,4.07
2019-05-07T01:25:02.347Z,4.43
2019-05-07T01:27:32.234Z,4.37
2019-05-07T01:30:02.570Z,4.10
2019-05-07T01:32:58.545Z,3.80
2019-05-07T01:35:46.539Z,3.93
2019-05-07T01:38:17.376Z,4.27
2019-05-07T01:40:46.024Z,4.67
2019-05-07T01:43:15.054Z,4.57
2019-05-07T01:45:49.161Z,4.07
2019-05-07T01:48:15.133Z,4.50
2019-05-07T01:50:43.457Z,5.23
2019-05-07T01:53:12.313Z,5.10
2019-05-07T01:55:42.827Z,5.63
2019-05-07T01:58:12.673Z,5.53
2019-05-07T02:00:42.485Z,5.07
2019-05-07T02:03:22.912Z,4.10
2019-05-07T02:06:13.295Z,4.20
2019-05-07T02:09:04.275Z,4.10
2019-05-07T02:11:39.187Z,5.80
2019-05-07T02:14:07.753Z,4.10
2019-05-07T02:16:36.536Z,3.63
2019-05-07T02:19:05.305Z,3.83
2019-05-07T02:21:34.155Z,4.23
2019-05-07T02:24:03.317Z,4.17
2019-05-07T02:26:32.280Z,3.90
2019-05-07T02:29:02.708Z,3.80
2019-05-07T02:31:33.620Z,3.67
2019-05-07T02:34:02.709Z,3.30
2019-05-07T02:36:34.012Z,3.23
2019-05-07T02:39:26.909Z,2.67
2019-05-07T02:41:55.906Z,2.10
2019-05-07T02:44:24.462Z,2.57
2019-05-07T02:47:03.745Z,2.60
2019-05-07T02:49:53.376Z,2.67
2019-05-07T02:52:43.396Z,1.97
2019-05-07T02:55:24.998Z,1.73
2019-05-07T02:57:54.155Z,2.90
2019-05-07T03:00:24.230Z,1.20
2019-05-07T03:02:53.310Z,1.60
2019-05-07T03:05:22.983Z,1.80
2019-05-07T03:07:53.607Z,1.70
2019-05-07T03:10:23.671Z,1.50
2019-05-07T03:12:53.643Z,1.87
2019-05-07T03:15:24.152Z,1.40
2019-05-07T03:17:53.864Z,1.73
2019-05-07T03:20:27.131Z,2.00
2019-05-07T03:22:56.526Z,1.70
2019-05-07T03:25:29.633Z,1.80
2019-05-07T03:27:58.231Z,2.80
2019-05-07T03:30:46.106Z,1.60
2019-05-07T03:33:37.239Z,1.70
2019-05-07T03:36:07.787Z,1.97
2019-05-07T03:38:38.193Z,1.80
2019-05-07T03:41:07.128Z,1.17
2019-05-07T03:43:35.871Z,5.47
2019-05-07T03:46:14.284Z,10.93
2019-05-07T03:48:44.965Z,8.07
2019-05-07T03:51:13.527Z,6.80
2019-05-07T03:53:43.540Z,5.43
2019-05-07T03:56:13.234Z,3.90
2019-05-07T03:58:43.186Z,3.87
2019-05-07T04:01:13.351Z,7.03
2019-05-07T04:03:44.574Z,12.53
2019-05-07T04:06:13.090Z,15.00
2019-05-07T04:08:43.234Z,13.00
2019-05-07T04:11:13.777Z,11.37
2019-05-07T04:13:44.123Z,7.10
2019-05-07T04:16:13.821Z,6.97
2019-05-07T04:18:43.665Z,5.63
2019-05-07T04:21:13.913Z,2.17
2019-05-07T04:23:43.746Z,2.70
2019-05-07T04:26:27.782Z,2.50
2019-05-07T04:29:06.154Z,2.43
2019-05-07T04:31:38.684Z,2.70
2019-05-07T04:34:23.443Z,3.43
2019-05-07T04:36:53.457Z,3.60
2019-05-07T04:39:23.158Z,3.97
2019-05-07T04:41:53.096Z,3.63
2019-05-07T04:44:23.502Z,3.70
2019-05-07T04:46:53.262Z,3.00
2019-05-07T04:49:23.894Z,2.67
2019-05-07T04:52:12.522Z,3.23
2019-05-07T04:54:43.461Z,2.10
2019-05-07T04:57:26.685Z,1.53
2019-05-07T04:59:56.916Z,2.00
2019-05-07T05:02:43.694Z,2.20
2019-05-07T05:05:12.867Z,1.33
2019-05-07T05:07:43.095Z,1.20
2019-05-07T05:10:13.435Z,1.30
2019-05-07T05:12:43.003Z,1.37
2019-05-07T05:15:12.778Z,1.43
2019-05-07T05:17:50.056Z,1.60
2019-05-07T05:20:13.102Z,2.77
2019-05-07T05:23:04.475Z,1.27
2019-05-07T05:25:35.994Z,1.37
2019-05-07T05:28:04.557Z,1.40
2019-05-07T05:30:42.577Z,1.53
2019-05-07T05:33:12.592Z,1.20
2019-05-07T05:35:43.040Z,1.30
2019-05-07T05:38:12.669Z,1.82
2019-05-07T05:40:42.725Z,1.70
2019-05-07T05:43:31.789Z,1.70
2019-05-07T05:46:02.726Z,1.70
2019-05-07T05:48:33.259Z,1.77
2019-05-07T05:51:19.921Z,2.00
2019-05-07T05:53:53.581Z,1.70
2019-05-07T05:56:33.842Z,2.17
2019-05-07T05:59:48.102Z,1.93
2019-05-07T06:02:32.225Z,2.13
2019-05-07T06:05:34.227Z,1.80
2019-05-07T06:08:09.245Z,1.60
2019-05-07T06:10:53.777Z,4.40
2019-05-07T06:13:28.229Z,2.17
2019-05-07T06:16:05.926Z,1.90
2019-05-07T06:18:57.004Z,1.83
2019-05-07T06:21:45.317Z,1.67
2019-05-07T06:24:16.126Z,2.30
2019-05-07T06:26:44.656Z,1.60
2019-05-07T06:29:13.470Z,2.07
2019-05-07T06:31:43.749Z,2.10
2019-05-07T06:34:12.742Z,1.93
2019-05-07T06:36:42.419Z,1.77
2019-05-07T06:39:22.178Z,1.67
2019-05-07T06:42:09.211Z,1.80
2019-05-07T06:44:37.857Z,1.57
2019-05-07T06:47:06.583Z,1.50
2019-05-07T06:49:35.470Z,1.33
2019-05-07T06:52:03.837Z,1.30
2019-05-07T06:54:32.642Z,1.20
2019-05-07T06:57:02.051Z,1.40
2019-05-07T06:59:48.409Z,1.40
2019-05-07T07:02:42.673Z,1.47
2019-05-07T07:05:39.621Z,1.30
2019-05-07T07:08:18.762Z,1.40
2019-05-07T07:11:25.178Z,1.43
2019-05-07T07:13:53.933Z,1.30
2019-05-07T07:16:22.681Z,2.87
2019-05-07T07:18:55.298Z,1.20
2019-05-07T07:21:23.145Z,1.10
2019-05-07T07:23:52.361Z,1.07
2019-05-07T07:26:22.111Z,1.60
2019-05-07T07:28:52.511Z,1.57
2019-05-07T07:31:35.010Z,1.30
2019-05-07T07:34:03.989Z,1.43
2019-05-07T07:36:37.227Z,1.20
2019-05-07T07:39:06.658Z,1.13
2019-05-07T07:41:55.945Z,1.10
2019-05-07T07:44:24.405Z,1.00
2019-05-07T07:46:53.265Z,7.43
2019-05-07T07:49:22.346Z,1.03
2019-05-07T07:51:52.639Z,2.17
2019-05-07T07:54:24.140Z,3.93
2019-05-07T07:57:12.622Z,1.70
2019-05-07T07:59:57.148Z,1.17
2019-05-07T08:02:54.403Z,1.20
2019-05-07T08:05:23.635Z,1.20
2019-05-07T08:08:02.230Z,1.37
2019-05-07T08:10:32.580Z,1.10
2019-05-07T08:13:02.127Z,1.43
2019-05-07T08:15:33.030Z,1.40
2019-05-07T08:18:02.772Z,1.40
2019-05-07T08:20:32.588Z,1.20
2019-05-07T08:23:02.881Z,1.00
2019-05-07T08:25:47.437Z,0.90
2019-05-07T08:28:25.233Z,0.93
2019-05-07T08:31:05.246Z,1.37
2019-05-07T08:33:37.682Z,1.57
2019-05-07T08:36:14.285Z,1.50
2019-05-07T08:39:06.937Z,1.17
2019-05-07T08:41:35.510Z,1.10
2019-05-07T08:44:15.544Z,1.07
2019-05-07T08:47:03.715Z,1.20
2019-05-07T08:49:38.858Z,0.83
2019-05-07T08:52:03.826Z,1.13
2019-05-07T08:54:32.958Z,0.97
2019-05-07T08:57:02.047Z,0.80
2019-05-07T08:59:32.086Z,1.53
2019-05-07T09:02:02.946Z,1.10
2019-05-07T09:04:32.847Z,1.13
2019-05-07T09:07:02.678Z,1.73
2019-05-07T09:09:32.429Z,1.20
2019-05-07T09:12:02.954Z,1.07
2019-05-07T09:14:32.311Z,1.30
2019-05-07T09:17:02.633Z,1.23
2019-05-07T09:19:32.243Z,1.10
2019-05-07T09:22:02.143Z,1.27
2019-05-07T09:24:33.296Z,1.33
2019-05-07T09:27:29.497Z,1.37
2019-05-07T09:30:22.076Z,1.20
2019-05-07T09:33:09.558Z,0.80
2019-05-07T09:35:47.746Z,1.37
2019-05-07T09:38:17.815Z,1.30
2019-05-07T09:40:48.028Z,1.30
2019-05-07T09:43:23.259Z,1.33
2019-05-07T09:45:54.185Z,1.10
2019-05-07T09:48:24.662Z,1.43
2019-05-07T09:50:55.203Z,1.30
2019-05-07T09:53:25.474Z,2.87
2019-05-07T09:55:55.114Z,1.20
2019-05-07T09:58:36.748Z,1.60
2019-05-07T10:00:58.401Z,1.27
2019-05-07T10:03:28.611Z,0.97
2019-05-07T10:05:58.980Z,1.30
2019-05-07T10:08:29.074Z,1.20
2019-05-07T10:10:58.841Z,2.00
2019-05-07T10:13:52.425Z,1.27
2019-05-07T10:16:30.859Z,1.40
2019-05-07T10:19:02.830Z,1.33
2019-05-07T10:21:33.181Z,2.10
2019-05-07T10:24:05.033Z,1.33
2019-05-07T10:26:34.620Z,1.27
2019-05-07T10:29:05.345Z,1.70
2019-05-07T10:31:39.552Z,1.20
2019-05-07T10:34:15.442Z,1.40
2019-05-07T10:36:45.247Z,1.97
2019-05-07T10:39:15.765Z,1.50
2019-05-07T10:41:46.090Z,1.20
2019-05-07T10:44:16.826Z,1.70
2019-05-07T10:47:03.615Z,1.50
2019-05-07T10:49:46.336Z,1.67
2019-05-07T10:52:17.475Z,1.53
2019-05-07T10:54:59.085Z,1.70
2019-05-07T10:57:17.710Z,1.50
2019-05-07T10:59:47.070Z,1.40
2019-05-07T11:02:24.915Z,4.30
2019-05-07T11:04:57.708Z,2.47
2019-05-07T11:07:32.686Z,2.57
2019-05-07T11:10:02.049Z,1.40
2019-05-07T11:12:31.953Z,1.70
2019-05-07T11:15:02.182Z,2.10
2019-05-07T11:17:45.600Z,1.50
2019-05-07T11:20:15.009Z,1.90
2019-05-07T11:22:43.547Z,2.03
2019-05-07T11:25:12.576Z,2.50
2019-05-07T11:27:42.130Z,1.60
2019-05-07T11:30:11.942Z,1.50
2019-05-07T11:32:42.823Z,1.50
2019-05-07T11:35:11.782Z,1.40
2019-05-07T11:37:44.111Z,1.70
2019-05-07T11:40:13.125Z,1.30
2019-05-07T11:43:16.386Z,1.67
2019-05-07T11:46:01.834Z,1.03
2019-05-07T11:48:29.634Z,1.40
2019-05-07T11:51:29.755Z,1.20
2019-05-07T11:54:08.938Z,0.87
2019-05-07T11:56:37.591Z,0.90
2019-05-07T11:59:06.394Z,0.90
2019-05-07T12:01:44.552Z,0.70
2019-05-07T12:04:06.515Z,0.87
2019-05-07T12:06:35.402Z,0.87
2019-05-07T12:09:05.870Z,0.80
2019-05-07T12:11:35.219Z,0.90
2019-05-07T12:14:07.594Z,0.83
2019-05-07T12:16:36.532Z,0.83
2019-05-07T12:19:05.273Z,0.73
2019-05-07T12:21:34.267Z,0.60
2019-05-07T12:24:03.257Z,0.50
2019-05-07T12:26:34.095Z,0.63
2019-05-07T12:29:03.085Z,0.57
2019-05-07T12:31:57.275Z,0.60
2019-05-07T12:34:31.757Z,0.60
2019-05-07T12:37:01.712Z,0.70
2019-05-07T12:39:31.885Z,0.60
2019-05-07T12:42:00.609Z,0.60
2019-05-07T12:44:31.844Z,0.67
2019-05-07T12:47:01.668Z,0.53
2019-05-07T12:49:32.324Z,0.80
2019-05-07T12:52:18.705Z,0.70
2019-05-07T12:54:57.722Z,0.50
2019-05-07T12:57:26.228Z,0.77
2019-05-07T12:59:57.973Z,0.50
2019-05-07T13:02:44.192Z,0.60
2019-05-07T13:05:12.594Z,0.50
2019-05-07T13:07:47.611Z,0.50
2019-05-07T13:10:16.646Z,0.50
2019-05-07T13:12:45.638Z,0.50
2019-05-07T13:15:24.389Z,0.70
2019-05-07T13:17:44.682Z,0.80
2019-05-07T13:20:13.847Z,0.72
2019-05-07T13:22:42.698Z,0.50
2019-05-07T13:25:11.630Z,0.82
2019-05-07T13:27:40.886Z,0.75
2019-05-07T13:30:11.817Z,0.80
2019-05-07T13:32:41.878Z,0.60
2019-05-07T13:35:12.361Z,1.32
2019-05-07T13:37:46.426Z,1.00
2019-05-07T13:40:47.295Z,1.32
2019-05-07T13:43:23.093Z,0.70
2019-05-07T13:45:59.783Z,0.95
2019-05-07T13:48:28.184Z,0.72
2019-05-07T13:50:57.677Z,0.80
2019-05-07T13:53:26.974Z,0.90
2019-05-07T13:55:55.867Z,0.80
2019-05-07T13:58:24.420Z,0.70
2019-05-07T14:01:12.108Z,0.60
2019-05-07T14:03:40.725Z,0.85
2019-05-07T14:06:09.482Z,0.68
2019-05-07T14:08:43.391Z,1.15
2019-05-07T14:11:12.337Z,0.98
2019-05-07T14:13:45.313Z,0.60
2019-05-07T14:16:14.671Z,0.70
2019-05-07T14:18:43.327Z,0.60
2019-05-07T14:21:13.027Z,0.53
2019-05-07T14:23:42.806Z,0.65
2019-05-07T14:26:11.640Z,0.70
2019-05-07T14:28:42.132Z,0.67
2019-05-07T14:31:12.154Z,0.65
2019-05-07T14:33:55.127Z,0.70
2019-05-07T14:36:28.366Z,0.50
2019-05-07T14:38:57.890Z,1.07
2019-05-07T14:41:27.009Z,0.60
2019-05-07T14:44:02.094Z,0.70
2019-05-07T14:46:43.562Z,0.50
2019-05-07T14:49:02.784Z,0.70
2019-05-07T14:51:32.546Z,0.90
2019-05-07T14:54:01.774Z,0.80
2019-05-07T14:56:33.058Z,0.70
2019-05-07T14:59:02.266Z,0.50
2019-05-07T15:01:31.007Z,0.80
2019-05-07T15:04:02.153Z,0.67
2019-05-07T15:06:32.377Z,0.57
2019-05-07T15:09:00.526Z,0.70
2019-05-07T15:11:31.415Z,0.77
2019-05-07T15:14:03.534Z,0.80
2019-05-07T15:16:32.728Z,0.60
2019-05-07T15:19:02.326Z,0.80
2019-05-07T15:21:32.291Z,0.80
2019-05-07T15:24:02.285Z,0.80
2019-05-07T15:26:32.818Z,0.67
2019-05-07T15:29:07.400Z,0.67
2019-05-07T15:32:03.194Z,0.90
2019-05-07T15:34:32.832Z,0.77
2019-05-07T15:37:02.574Z,0.80
2019-05-07T15:39:32.822Z,1.00
2019-05-07T15:42:02.656Z,0.63
2019-05-07T15:44:31.114Z,0.77
2019-05-07T15:47:02.875Z,0.83
2019-05-07T15:49:32.347Z,0.70
2019-05-07T15:52:03.657Z,0.93
2019-05-07T15:54:32.682Z,0.80
2019-05-07T15:57:04.140Z,0.80
2019-05-07T15:59:32.446Z,0.70
2019-05-07T16:02:12.249Z,0.73
2019-05-07T16:04:40.465Z,0.73
2019-05-07T16:07:10.322Z,0.60
2019-05-07T16:09:45.143Z,0.60
2019-05-07T16:12:17.417Z,0.60
2019-05-07T16:14:46.059Z,0.63
2019-05-07T16:17:24.761Z,0.60
2019-05-07T16:19:55.046Z,0.83
2019-05-07T16:22:29.794Z,0.83
2019-05-07T16:24:58.694Z,0.80
2019-05-07T16:27:27.450Z,0.80
2019-05-07T16:30:36.942Z,0.67
2019-05-07T16:33:08.926Z,0.87
2019-05-07T16:35:37.686Z,0.90
2019-05-07T16:38:06.323Z,1.10
2019-05-07T16:40:35.049Z,0.70
2019-05-07T16:43:03.421Z,1.00
2019-05-07T16:45:32.043Z,0.80
2019-05-07T16:48:03.304Z,0.70
2019-05-07T16:50:32.736Z,0.57
2019-05-07T16:53:02.815Z,0.80
2019-05-07T16:55:36.769Z,0.77
2019-05-07T16:58:12.380Z,0.90
2019-05-07T17:00:43.780Z,0.80
2019-05-07T17:03:16.222Z,0.80
2019-05-07T17:05:45.017Z,0.70
2019-05-07T17:08:42.471Z,0.77
2019-05-07T17:11:12.111Z,0.53
2019-05-07T17:13:42.408Z,0.80
2019-05-07T17:16:12.375Z,0.73
2019-05-07T17:18:41.033Z,1.10
2019-05-07T17:21:09.573Z,0.97
2019-05-07T17:23:43.996Z,1.20
2019-05-07T17:26:08.869Z,0.97
2019-05-07T17:28:37.816Z,1.40
2019-05-07T17:31:07.062Z,1.30
2019-05-07T17:33:36.088Z,1.07
2019-05-07T17:36:04.618Z,1.57
2019-05-07T17:38:33.119Z,1.10
2019-05-07T17:41:12.895Z,1.50
2019-05-07T17:43:32.471Z,1.53
2019-05-07T17:46:02.889Z,1.23
2019-05-07T17:48:32.615Z,1.20
2019-05-07T17:51:23.924Z,1.43
2019-05-07T17:53:59.377Z,1.60
2019-05-07T17:56:23.445Z,1.40
2019-05-07T17:58:53.053Z,1.83
2019-05-07T18:01:27.018Z,1.70
2019-05-07T18:03:55.662Z,1.60
2019-05-07T18:06:25.085Z,2.77
2019-05-07T18:08:53.683Z,2.30
2019-05-07T18:11:24.315Z,2.67
2019-05-07T18:13:54.214Z,2.97
2019-05-07T18:16:29.137Z,2.50
2019-05-07T18:18:57.954Z,2.70
2019-05-07T18:21:26.610Z,3.83
2019-05-07T18:23:55.322Z,2.67
2019-05-07T18:26:30.281Z,2.97
2019-05-07T18:28:54.554Z,3.60
2019-05-07T18:31:44.493Z,4.67
2019-05-07T18:34:13.335Z,4.87
2019-05-07T18:36:42.370Z,6.07
2019-05-07T18:39:11.422Z,4.17
2019-05-07T18:41:41.929Z,2.70
2019-05-07T18:44:15.312Z,3.00
2019-05-07T18:46:43.314Z,3.50
2019-05-07T18:49:12.831Z,3.10
2019-05-07T18:51:42.668Z,2.70
2019-05-07T18:54:13.281Z,3.00
2019-05-07T18:56:42.183Z,3.10
2019-05-07T18:59:11.572Z,3.33
2019-05-07T19:01:42.264Z,3.40
2019-05-07T19:04:12.815Z,3.13
2019-05-07T19:06:42.462Z,3.23
2019-05-07T19:09:11.283Z,3.10
2019-05-07T19:11:39.989Z,2.70
2019-05-07T19:14:08.927Z,3.10
2019-05-07T19:16:37.990Z,3.60
2019-05-07T19:19:07.058Z,3.13
2019-05-07T19:21:35.738Z,3.13
2019-05-07T19:24:04.827Z,3.53
2019-05-07T19:26:33.402Z,3.57
2019-05-07T19:29:02.887Z,2.87
2019-05-07T19:31:32.519Z,2.90
2019-05-07T19:34:03.033Z,2.97
2019-05-07T19:36:32.222Z,2.63
2019-05-07T19:39:01.974Z,2.87
2019-05-07T19:41:32.838Z,3.30
2019-05-07T19:44:02.116Z,2.53
2019-05-07T19:46:30.623Z,2.67
2019-05-07T19:48:59.744Z,2.57
2019-05-07T19:51:28.457Z,2.50
2019-05-07T19:53:57.305Z,3.07
2019-05-07T19:56:25.979Z,2.90
2019-05-07T19:58:54.799Z,2.87
2019-05-07T20:01:28.705Z,2.70
2019-05-07T20:03:57.322Z,2.83
2019-05-07T20:06:26.076Z,2.93
2019-05-07T20:09:09.141Z,2.30
2019-05-07T20:11:34.033Z,2.37
2019-05-07T20:14:02.598Z,2.57
2019-05-07T20:16:32.589Z,2.60
2019-05-07T20:19:03.146Z,2.50
2019-05-07T20:21:32.721Z,2.20
2019-05-07T20:24:01.930Z,2.40
2019-05-07T20:26:32.645Z,2.80
2019-05-07T20:29:03.101Z,2.47
2019-05-07T20:31:33.823Z,2.70
2019-05-07T20:34:02.490Z,1.90
2019-05-07T20:36:32.754Z,2.10
2019-05-07T20:39:02.329Z,2.67
2019-05-07T20:41:33.183Z,2.13
2019-05-07T20:44:02.782Z,2.20
2019-05-07T20:46:32.035Z,1.53
2019-05-07T20:49:02.899Z,2.17
2019-05-07T20:51:32.526Z,2.67
2019-05-07T20:54:12.883Z,2.30
2019-05-07T20:56:46.705Z,2.47
2019-05-07T20:59:15.479Z,2.10
2019-05-07T21:01:43.914Z,2.27
2019-05-07T21:04:13.083Z,2.30
2019-05-07T21:06:43.156Z,2.00
2019-05-07T21:09:12.727Z,2.10
2019-05-07T21:11:43.072Z,1.70
2019-05-07T21:14:12.163Z,1.67
2019-05-07T21:16:42.480Z,1.93
2019-05-07T21:19:12.769Z,2.10
2019-05-07T21:21:42.203Z,1.77
2019-05-07T21:24:13.079Z,2.33
2019-05-07T21:26:42.313Z,2.03
2019-05-07T21:29:13.702Z,1.77
2019-05-07T21:31:43.237Z,2.17
2019-05-07T21:34:12.677Z,1.90
2019-05-07T21:36:43.297Z,1.70
2019-05-07T21:39:12.960Z,1.90
2019-05-07T21:41:42.934Z,1.57
2019-05-07T21:44:11.459Z,1.97
2019-05-07T21:46:39.831Z,1.80
2019-05-07T21:49:08.248Z,1.73
2019-05-07T21:51:36.865Z,2.43
2019-05-07T21:54:15.755Z,4.43
2019-05-07T21:57:16.084Z,6.33
2019-05-07T21:59:45.083Z,2.50
2019-05-07T22:02:18.415Z,2.40
2019-05-07T22:04:47.365Z,2.50
2019-05-07T22:07:16.077Z,2.53
2019-05-07T22:09:45.042Z,1.90
2019-05-07T22:12:13.664Z,2.58
2019-05-07T22:14:42.605Z,2.53
2019-05-07T22:17:12.770Z,2.40
2019-05-07T22:19:42.653Z,2.50
2019-05-07T22:22:12.369Z,5.67
2019-05-07T22:24:42.570Z,3.57
2019-05-07T22:27:12.916Z,3.63
2019-05-07T22:29:41.767Z,2.57
2019-05-07T22:32:29.634Z,2.20
2019-05-07T22:35:13.229Z,2.33
2019-05-07T22:37:44.222Z,2.30
2019-05-07T22:40:17.771Z,2.50
2019-05-07T22:42:48.289Z,2.87
2019-05-07T22:45:17.189Z,2.80
2019-05-07T22:47:46.345Z,2.60
2019-05-07T22:50:15.030Z,2.70
2019-05-07T22:52:44.005Z,2.43
2019-05-07T22:55:14.225Z,2.50
2019-05-07T22:57:55.758Z,2.40
2019-05-07T23:00:42.608Z,2.97
2019-05-07T23:03:12.366Z,3.07
2019-05-07T23:05:42.213Z,2.53
2019-05-07T23:08:12.793Z,3.03
2019-05-07T23:10:42.153Z,2.70
2019-05-07T23:13:13.021Z,3.20
2019-05-07T23:15:43.043Z,3.50
2019-05-07T23:18:12.985Z,2.80
2019-05-07T23:20:42.717Z,3.03
2019-05-07T23:23:13.950Z,2.80
2019-05-07T23:25:43.076Z,2.70
2019-05-07T23:28:12.651Z,3.13
2019-05-07T23:30:44.245Z,2.53
2019-05-07T23:33:12.397Z,2.70
2019-05-07T23:35:42.145Z,2.50
2019-05-07T23:38:12.231Z,2.40
2019-05-07T23:41:03.379Z,2.83
2019-05-07T23:43:32.746Z,2.97
2019-05-07T23:46:02.222Z,2.37
2019-05-07T23:48:32.099Z,1.87
2019-05-07T23:51:02.093Z,1.80
2019-05-07T23:53:30.934Z,1.70
2019-05-07T23:55:59.499Z,1.77
2019-05-07T23:58:28.040Z,1.90
